Strona główna
METAR-TAF:

METAR-TAF

Lotnisko :

Port lotniczy Labuan

Labuan, Malezja

Szerokość geograficzna: 05-18N, Długość geograficzna: 115-15E, wysokość: 30 m

Aktualna obserwacja pogody

Raport powstał 1 godzina i 18 minut temu, godzina 10:00 UTC
Wiatr 3 kt od zachód, zmienny między południe i północno-północny zachód
Temperatura 30°C
Wilgotność 75%
Ciśnienie 1010 hPa
Widzialność 10 km lub więcej
Mało chmury na wysokości 1300 ft
Rozproszone chmury na wysokości 14000 ft
Przerywane chmury na wysokości 29000 ft

METAR: WBKL 171000Z 27003KT 190V340 9999 FEW013 SCT140 BKN290 30/25 Q1010

czas: 19:18 (11:18 UTC)

Prognoza

Raport powstał 6 godziny i 18 minut temu, godzina 05:00 UTC
Prognoza ważna od 17 godzina 06 UTC do 18 godzina 06 UTC
Wiatr 4 kt z kierunków zmiennych
Widzialność 10 km lub więcej
Mało chmury na wysokości 1400 ft
Rozproszone chmury na wysokości 14000 ft
Przerywane chmury na wysokości 29000 ft

TAF: WBKL 170500Z 1706/1806 VRB04KT 9999 FEW014 SCT140 BKN290

Obserwacja i prognoza pogody dla ponad 4000 lotnisk (raport METAR i TAF).

Dostępne stacje oznaczono żółtymi i czerwonymi punktami na mapie.

Najedź kursorem aby zobaczyć nazwę stacji.

Kliknij aby zobaczyć obserwacje i prognozy pogody.

Aby zmienić mapę: kliknij na zielony przycisk z czarnym krzyżykiem, aby powiększyć; na zielony przycisk z myślnikiem, aby pomniejszyć; na zielone strzałki, aby przejść do map sąsiednich.


METAR-TAF: